sensor_id;sensor_type;location;lat;lon;timestamp;P1;durP1;ratioP1;P2;durP2;ratioP2
25905;SDS011;13713;52.552;13.204;2022-07-17T00:02:16;4.03;;;2.10;;
25905;SDS011;13713;52.552;13.204;2022-07-17T00:04:42;3.90;;;2.00;;
25905;SDS011;13713;52.552;13.204;2022-07-17T00:07:08;3.00;;;2.10;;
25905;SDS011;13713;52.552;13.204;2022-07-17T00:09:33;3.08;;;1.90;;
25905;SDS011;13713;52.552;13.204;2022-07-17T00:12:00;3.15;;;2.13;;
25905;SDS011;13713;52.552;13.204;2022-07-17T00:14:25;3.00;;;2.03;;
25905;SDS011;13713;52.552;13.204;2022-07-17T00:16:51;3.65;;;2.05;;
25905;SDS011;13713;52.552;13.204;2022-07-17T00:19:18;3.60;;;2.13;;
25905;SDS011;13713;52.552;13.204;2022-07-17T00:21:45;3.88;;;2.05;;
25905;SDS011;13713;52.552;13.204;2022-07-17T00:24:10;3.90;;;1.70;;
25905;SDS011;13713;52.552;13.204;2022-07-17T00:26:37;3.58;;;2.00;;
25905;SDS011;13713;52.552;13.204;2022-07-17T00:29:03;2.88;;;1.80;;
25905;SDS011;13713;52.552;13.204;2022-07-17T00:31:29;2.60;;;1.77;;
25905;SDS011;13713;52.552;13.204;2022-07-17T00:33:56;3.50;;;2.00;;
25905;SDS011;13713;52.552;13.204;2022-07-17T00:36:22;3.13;;;1.98;;
25905;SDS011;13713;52.552;13.204;2022-07-17T00:38:47;2.47;;;1.98;;
25905;SDS011;13713;52.552;13.204;2022-07-17T00:41:13;4.22;;;2.35;;
25905;SDS011;13713;52.552;13.204;2022-07-17T00:43:39;3.50;;;1.70;;
25905;SDS011;13713;52.552;13.204;2022-07-17T00:46:05;2.95;;;2.03;;
25905;SDS011;13713;52.552;13.204;2022-07-17T00:48:31;2.78;;;2.10;;
25905;SDS011;13713;52.552;13.204;2022-07-17T00:50:57;2.10;;;1.60;;
25905;SDS011;13713;52.552;13.204;2022-07-17T00:53:23;4.15;;;2.22;;
25905;SDS011;13713;52.552;13.204;2022-07-17T00:55:49;3.42;;;2.33;;
25905;SDS011;13713;52.552;13.204;2022-07-17T00:58:19;4.53;;;2.63;;
25905;SDS011;13713;52.552;13.204;2022-07-17T01:00:51;3.97;;;2.00;;
25905;SDS011;13713;52.552;13.204;2022-07-17T01:03:19;3.38;;;1.95;;
25905;SDS011;13713;52.552;13.204;2022-07-17T01:05:46;2.92;;;1.80;;
25905;SDS011;13713;52.552;13.204;2022-07-17T01:08:12;2.60;;;1.83;;
25905;SDS011;13713;52.552;13.204;2022-07-17T01:10:38;4.60;;;2.13;;
25905;SDS011;13713;52.552;13.204;2022-07-17T01:13:05;3.10;;;2.08;;
25905;SDS011;13713;52.552;13.204;2022-07-17T01:15:31;2.78;;;2.15;;
25905;SDS011;13713;52.552;13.204;2022-07-17T01:18:03;3.88;;;2.15;;
25905;SDS011;13713;52.552;13.204;2022-07-17T01:20:30;4.72;;;2.17;;
25905;SDS011;13713;52.552;13.204;2022-07-17T01:22:55;5.03;;;2.50;;
25905;SDS011;13713;52.552;13.204;2022-07-17T01:25:23;3.25;;;1.95;;
25905;SDS011;13713;52.552;13.204;2022-07-17T01:27:49;4.57;;;2.28;;
25905;SDS011;13713;52.552;13.204;2022-07-17T01:30:15;3.70;;;2.30;;
25905;SDS011;13713;52.552;13.204;2022-07-17T01:32:41;2.75;;;1.92;;
25905;SDS011;13713;52.552;13.204;2022-07-17T01:35:08;3.53;;;2.10;;
25905;SDS011;13713;52.552;13.204;2022-07-17T01:37:36;3.28;;;2.35;;
25905;SDS011;13713;52.552;13.204;2022-07-17T01:40:03;3.47;;;2.00;;
25905;SDS011;13713;52.552;13.204;2022-07-17T01:42:29;2.83;;;1.80;;
25905;SDS011;13713;52.552;13.204;2022-07-17T01:44:55;3.67;;;2.25;;
25905;SDS011;13713;52.552;13.204;2022-07-17T01:47:21;4.55;;;2.65;;
25905;SDS011;13713;52.552;13.204;2022-07-17T01:49:49;3.67;;;1.75;;
25905;SDS011;13713;52.552;13.204;2022-07-17T01:52:16;4.50;;;2.10;;
25905;SDS011;13713;52.552;13.204;2022-07-17T01:54:42;3.72;;;2.03;;
25905;SDS011;13713;52.552;13.204;2022-07-17T01:57:08;2.85;;;2.15;;
25905;SDS011;13713;52.552;13.204;2022-07-17T01:59:35;3.58;;;2.05;;
25905;SDS011;13713;52.552;13.204;2022-07-17T02:02:02;3.60;;;2.40;;
25905;SDS011;13713;52.552;13.204;2022-07-17T02:04:29;2.88;;;1.95;;
25905;SDS011;13713;52.552;13.204;2022-07-17T02:06:56;3.70;;;2.00;;
25905;SDS011;13713;52.552;13.204;2022-07-17T02:09:22;2.83;;;2.20;;
25905;SDS011;13713;52.552;13.204;2022-07-17T02:11:49;3.08;;;2.20;;
25905;SDS011;13713;52.552;13.204;2022-07-17T02:14:14;3.55;;;2.05;;
25905;SDS011;13713;52.552;13.204;2022-07-17T02:16:40;4.22;;;2.60;;
25905;SDS011;13713;52.552;13.204;2022-07-17T02:19:06;3.60;;;2.30;;
25905;SDS011;13713;52.552;13.204;2022-07-17T02:21:32;5.00;;;2.42;;
25905;SDS011;13713;52.552;13.204;2022-07-17T02:23:57;3.33;;;1.90;;
25905;SDS011;13713;52.552;13.204;2022-07-17T02:26:23;4.45;;;2.20;;
25905;SDS011;13713;52.552;13.204;2022-07-17T02:28:49;2.85;;;1.85;;
25905;SDS011;13713;52.552;13.204;2022-07-17T02:31:14;3.10;;;2.10;;
25905;SDS011;13713;52.552;13.204;2022-07-17T02:33:40;4.03;;;2.00;;
25905;SDS011;13713;52.552;13.204;2022-07-17T02:36:06;3.75;;;2.10;;
25905;SDS011;13713;52.552;13.204;2022-07-17T02:38:32;3.03;;;2.15;;
25905;SDS011;13713;52.552;13.204;2022-07-17T02:40:57;3.60;;;2.40;;
25905;SDS011;13713;52.552;13.204;2022-07-17T02:43:23;3.78;;;2.33;;
25905;SDS011;13713;52.552;13.204;2022-07-17T02:45:49;5.53;;;2.35;;
25905;SDS011;13713;52.552;13.204;2022-07-17T02:48:14;3.42;;;1.77;;
25905;SDS011;13713;52.552;13.204;2022-07-17T02:50:40;3.22;;;2.28;;
25905;SDS011;13713;52.552;13.204;2022-07-17T02:53:05;3.42;;;2.20;;
25905;SDS011;13713;52.552;13.204;2022-07-17T02:55:31;2.95;;;2.20;;
25905;SDS011;13713;52.552;13.204;2022-07-17T02:57:57;3.30;;;2.40;;
25905;SDS011;13713;52.552;13.204;2022-07-17T03:00:22;3.67;;;1.80;;
25905;SDS011;13713;52.552;13.204;2022-07-17T03:02:48;3.13;;;2.25;;
25905;SDS011;13713;52.552;13.204;2022-07-17T03:05:14;3.65;;;2.45;;
25905;SDS011;13713;52.552;13.204;2022-07-17T03:07:41;4.68;;;2.67;;
25905;SDS011;13713;52.552;13.204;2022-07-17T03:10:07;3.25;;;1.88;;
25905;SDS011;13713;52.552;13.204;2022-07-17T03:12:33;3.03;;;1.92;;
25905;SDS011;13713;52.552;13.204;2022-07-17T03:14:59;3.42;;;2.45;;
25905;SDS011;13713;52.552;13.204;2022-07-17T03:17:25;2.90;;;2.08;;
25905;SDS011;13713;52.552;13.204;2022-07-17T03:19:51;3.97;;;2.30;;
25905;SDS011;13713;52.552;13.204;2022-07-17T03:22:17;2.50;;;2.28;;
25905;SDS011;13713;52.552;13.204;2022-07-17T03:24:42;3.58;;;2.35;;
25905;SDS011;13713;52.552;13.204;2022-07-17T03:27:08;3.97;;;2.22;;
25905;SDS011;13713;52.552;13.204;2022-07-17T03:29:33;3.53;;;2.40;;
25905;SDS011;13713;52.552;13.204;2022-07-17T03:31:59;3.83;;;2.20;;
25905;SDS011;13713;52.552;13.204;2022-07-17T03:34:25;2.97;;;2.03;;
25905;SDS011;13713;52.552;13.204;2022-07-17T03:36:50;4.35;;;2.10;;
25905;SDS011;13713;52.552;13.204;2022-07-17T03:39:16;4.03;;;2.20;;
25905;SDS011;13713;52.552;13.204;2022-07-17T03:41:42;3.90;;;2.20;;
25905;SDS011;13713;52.552;13.204;2022-07-17T03:44:08;4.18;;;2.22;;
25905;SDS011;13713;52.552;13.204;2022-07-17T03:46:34;4.00;;;2.55;;
25905;SDS011;13713;52.552;13.204;2022-07-17T03:49:00;4.18;;;2.40;;
25905;SDS011;13713;52.552;13.204;2022-07-17T03:51:25;2.83;;;2.10;;
25905;SDS011;13713;52.552;13.204;2022-07-17T03:53:51;3.92;;;2.03;;
25905;SDS011;13713;52.552;13.204;2022-07-17T03:56:17;4.28;;;2.50;;
25905;SDS011;13713;52.552;13.204;2022-07-17T03:58:43;4.55;;;2.50;;
25905;SDS011;13713;52.552;13.204;2022-07-17T04:01:08;3.35;;;2.20;;
25905;SDS011;13713;52.552;13.204;2022-07-17T04:03:34;4.60;;;2.70;;
25905;SDS011;13713;52.552;13.204;2022-07-17T04:06:00;3.80;;;2.22;;
25905;SDS011;13713;52.552;13.204;2022-07-17T04:08:25;4.75;;;2.40;;
25905;SDS011;13713;52.552;13.204;2022-07-17T04:10:51;3.85;;;2.35;;
25905;SDS011;13713;52.552;13.204;2022-07-17T04:13:16;4.28;;;2.67;;
25905;SDS011;13713;52.552;13.204;2022-07-17T04:15:42;3.03;;;2.08;;
25905;SDS011;13713;52.552;13.204;2022-07-17T04:18:17;3.83;;;2.60;;
25905;SDS011;13713;52.552;13.204;2022-07-17T04:20:48;3.38;;;2.25;;
25905;SDS011;13713;52.552;13.204;2022-07-17T04:23:15;3.47;;;2.17;;
25905;SDS011;13713;52.552;13.204;2022-07-17T04:25:41;3.40;;;2.35;;
25905;SDS011;13713;52.552;13.204;2022-07-17T04:28:07;2.83;;;2.00;;
25905;SDS011;13713;52.552;13.204;2022-07-17T04:30:33;2.95;;;2.05;;
25905;SDS011;13713;52.552;13.204;2022-07-17T04:32:59;4.38;;;2.28;;
25905;SDS011;13713;52.552;13.204;2022-07-17T04:35:25;2.75;;;2.30;;
25905;SDS011;13713;52.552;13.204;2022-07-17T04:37:51;3.38;;;2.05;;
25905;SDS011;13713;52.552;13.204;2022-07-17T04:40:16;4.65;;;2.45;;
25905;SDS011;13713;52.552;13.204;2022-07-17T04:42:42;4.07;;;2.42;;
25905;SDS011;13713;52.552;13.204;2022-07-17T04:45:09;3.72;;;2.00;;
25905;SDS011;13713;52.552;13.204;2022-07-17T04:47:35;3.47;;;2.40;;
25905;SDS011;13713;52.552;13.204;2022-07-17T04:50:00;4.95;;;2.50;;
25905;SDS011;13713;52.552;13.204;2022-07-17T04:52:26;3.33;;;2.00;;
25905;SDS011;13713;52.552;13.204;2022-07-17T04:54:52;2.80;;;2.13;;
25905;SDS011;13713;52.552;13.204;2022-07-17T04:57:18;3.63;;;2.10;;
25905;SDS011;13713;52.552;13.204;2022-07-17T04:59:43;3.63;;;2.38;;
25905;SDS011;13713;52.552;13.204;2022-07-17T05:02:09;7.95;;;2.42;;
25905;SDS011;13713;52.552;13.204;2022-07-17T05:04:34;3.78;;;2.28;;
25905;SDS011;13713;52.552;13.204;2022-07-17T05:07:00;3.45;;;2.42;;
25905;SDS011;13713;52.552;13.204;2022-07-17T05:09:26;3.42;;;2.42;;
25905;SDS011;13713;52.552;13.204;2022-07-17T05:11:52;3.92;;;2.38;;
25905;SDS011;13713;52.552;13.204;2022-07-17T05:14:17;4.05;;;2.08;;
25905;SDS011;13713;52.552;13.204;2022-07-17T05:16:43;3.50;;;2.42;;
25905;SDS011;13713;52.552;13.204;2022-07-17T05:19:09;3.65;;;2.20;;
25905;SDS011;13713;52.552;13.204;2022-07-17T05:21:34;3.95;;;2.33;;
25905;SDS011;13713;52.552;13.204;2022-07-17T05:24:00;5.88;;;2.53;;
25905;SDS011;13713;52.552;13.204;2022-07-17T05:26:26;4.50;;;2.30;;
25905;SDS011;13713;52.552;13.204;2022-07-17T05:28:51;5.05;;;2.67;;
25905;SDS011;13713;52.552;13.204;2022-07-17T05:31:17;5.38;;;2.65;;
25905;SDS011;13713;52.552;13.204;2022-07-17T05:33:43;3.03;;;2.22;;
25905;SDS011;13713;52.552;13.204;2022-07-17T05:36:09;4.00;;;2.35;;
25905;SDS011;13713;52.552;13.204;2022-07-17T05:38:35;5.38;;;2.15;;
25905;SDS011;13713;52.552;13.204;2022-07-17T05:41:00;3.80;;;2.30;;
25905;SDS011;13713;52.552;13.204;2022-07-17T05:43:26;3.95;;;2.40;;
25905;SDS011;13713;52.552;13.204;2022-07-17T05:45:56;5.35;;;2.40;;
25905;SDS011;13713;52.552;13.204;2022-07-17T05:48:22;5.53;;;2.80;;
25905;SDS011;13713;52.552;13.204;2022-07-17T05:50:48;4.78;;;2.70;;
25905;SDS011;13713;52.552;13.204;2022-07-17T05:53:14;4.50;;;2.40;;
25905;SDS011;13713;52.552;13.204;2022-07-17T05:55:40;3.40;;;2.60;;
25905;SDS011;13713;52.552;13.204;2022-07-17T05:58:06;6.15;;;2.47;;
25905;SDS011;13713;52.552;13.204;2022-07-17T06:00:32;3.90;;;2.92;;
25905;SDS011;13713;52.552;13.204;2022-07-17T06:02:58;3.53;;;2.40;;
25905;SDS011;13713;52.552;13.204;2022-07-17T06:05:24;4.10;;;2.35;;
25905;SDS011;13713;52.552;13.204;2022-07-17T06:07:54;6.05;;;2.30;;
25905;SDS011;13713;52.552;13.204;2022-07-17T06:10:21;5.78;;;2.88;;
25905;SDS011;13713;52.552;13.204;2022-07-17T06:12:47;4.38;;;2.47;;
25905;SDS011;13713;52.552;13.204;2022-07-17T06:15:13;3.88;;;2.55;;
25905;SDS011;13713;52.552;13.204;2022-07-17T06:17:38;4.38;;;2.75;;
25905;SDS011;13713;52.552;13.204;2022-07-17T06:20:04;5.80;;;2.95;;
25905;SDS011;13713;52.552;13.204;2022-07-17T06:22:30;4.18;;;2.35;;
25905;SDS011;13713;52.552;13.204;2022-07-17T06:24:56;3.97;;;2.72;;
25905;SDS011;13713;52.552;13.204;2022-07-17T06:27:22;5.03;;;2.90;;
25905;SDS011;13713;52.552;13.204;2022-07-17T06:29:48;5.10;;;2.55;;
25905;SDS011;13713;52.552;13.204;2022-07-17T06:32:14;4.97;;;2.67;;
25905;SDS011;13713;52.552;13.204;2022-07-17T06:34:39;4.75;;;2.50;;
25905;SDS011;13713;52.552;13.204;2022-07-17T06:37:05;5.35;;;2.40;;
25905;SDS011;13713;52.552;13.204;2022-07-17T06:39:31;4.32;;;2.92;;
25905;SDS011;13713;52.552;13.204;2022-07-17T06:41:56;6.05;;;2.78;;
25905;SDS011;13713;52.552;13.204;2022-07-17T06:44:22;5.57;;;2.70;;
25905;SDS011;13713;52.552;13.204;2022-07-17T06:46:48;6.18;;;3.13;;
25905;SDS011;13713;52.552;13.204;2022-07-17T06:49:14;5.57;;;2.70;;
25905;SDS011;13713;52.552;13.204;2022-07-17T06:51:39;6.88;;;2.90;;
25905;SDS011;13713;52.552;13.204;2022-07-17T06:54:05;4.63;;;2.97;;
25905;SDS011;13713;52.552;13.204;2022-07-17T06:56:31;4.63;;;2.75;;
25905;SDS011;13713;52.552;13.204;2022-07-17T06:58:56;5.88;;;2.88;;
25905;SDS011;13713;52.552;13.204;2022-07-17T07:01:22;4.93;;;3.10;;
25905;SDS011;13713;52.552;13.204;2022-07-17T07:03:48;4.55;;;2.75;;
25905;SDS011;13713;52.552;13.204;2022-07-17T07:06:13;4.30;;;2.83;;
25905;SDS011;13713;52.552;13.204;2022-07-17T07:08:39;6.18;;;2.80;;
25905;SDS011;13713;52.552;13.204;2022-07-17T07:11:05;3.72;;;2.90;;
25905;SDS011;13713;52.552;13.204;2022-07-17T07:13:31;4.45;;;2.60;;
25905;SDS011;13713;52.552;13.204;2022-07-17T07:15:57;6.13;;;3.10;;
25905;SDS011;13713;52.552;13.204;2022-07-17T07:18:22;4.35;;;2.90;;
25905;SDS011;13713;52.552;13.204;2022-07-17T07:20:48;6.97;;;2.90;;
25905;SDS011;13713;52.552;13.204;2022-07-17T07:23:14;5.03;;;2.95;;
25905;SDS011;13713;52.552;13.204;2022-07-17T07:25:39;5.63;;;2.90;;
25905;SDS011;13713;52.552;13.204;2022-07-17T07:28:05;4.38;;;2.47;;
25905;SDS011;13713;52.552;13.204;2022-07-17T07:30:31;5.53;;;3.08;;
25905;SDS011;13713;52.552;13.204;2022-07-17T07:32:57;6.30;;;3.33;;
25905;SDS011;13713;52.552;13.204;2022-07-17T07:35:23;5.22;;;3.53;;
25905;SDS011;13713;52.552;13.204;2022-07-17T07:37:49;3.78;;;2.92;;
25905;SDS011;13713;52.552;13.204;2022-07-17T07:40:14;6.70;;;3.15;;
25905;SDS011;13713;52.552;13.204;2022-07-17T07:42:40;5.68;;;3.63;;
25905;SDS011;13713;52.552;13.204;2022-07-17T07:45:07;4.22;;;3.00;;
25905;SDS011;13713;52.552;13.204;2022-07-17T07:47:39;5.95;;;3.13;;
25905;SDS011;13713;52.552;13.204;2022-07-17T07:50:06;6.03;;;2.90;;
25905;SDS011;13713;52.552;13.204;2022-07-17T07:52:32;4.40;;;3.10;;
25905;SDS011;13713;52.552;13.204;2022-07-17T07:54:58;4.90;;;3.20;;
25905;SDS011;13713;52.552;13.204;2022-07-17T07:57:23;4.38;;;3.17;;
25905;SDS011;13713;52.552;13.204;2022-07-17T07:59:49;4.18;;;2.85;;
25905;SDS011;13713;52.552;13.204;2022-07-17T08:02:15;3.97;;;2.65;;
25905;SDS011;13713;52.552;13.204;2022-07-17T08:04:40;6.55;;;3.90;;
25905;SDS011;13713;52.552;13.204;2022-07-17T08:07:06;5.43;;;3.25;;
25905;SDS011;13713;52.552;13.204;2022-07-17T08:09:31;5.00;;;3.08;;
25905;SDS011;13713;52.552;13.204;2022-07-17T08:11:57;5.45;;;3.28;;
25905;SDS011;13713;52.552;13.204;2022-07-17T08:14:23;5.10;;;2.95;;
25905;SDS011;13713;52.552;13.204;2022-07-17T08:16:48;6.53;;;2.95;;
25905;SDS011;13713;52.552;13.204;2022-07-17T08:19:14;3.67;;;3.17;;
25905;SDS011;13713;52.552;13.204;2022-07-17T08:21:39;5.05;;;3.03;;
25905;SDS011;13713;52.552;13.204;2022-07-17T08:24:05;6.75;;;3.58;;
25905;SDS011;13713;52.552;13.204;2022-07-17T08:26:31;5.60;;;3.30;;
25905;SDS011;13713;52.552;13.204;2022-07-17T08:28:56;4.85;;;3.33;;
25905;SDS011;13713;52.552;13.204;2022-07-17T08:31:22;5.85;;;2.97;;
25905;SDS011;13713;52.552;13.204;2022-07-17T08:33:47;7.45;;;3.28;;
25905;SDS011;13713;52.552;13.204;2022-07-17T08:36:13;5.68;;;3.22;;
25905;SDS011;13713;52.552;13.204;2022-07-17T08:38:39;6.80;;;3.58;;
25905;SDS011;13713;52.552;13.204;2022-07-17T08:41:04;7.03;;;3.70;;
25905;SDS011;13713;52.552;13.204;2022-07-17T08:43:30;5.75;;;3.47;;
25905;SDS011;13713;52.552;13.204;2022-07-17T08:45:56;4.50;;;3.22;;
25905;SDS011;13713;52.552;13.204;2022-07-17T08:48:23;5.00;;;3.20;;
25905;SDS011;13713;52.552;13.204;2022-07-17T08:50:51;5.20;;;2.80;;
25905;SDS011;13713;52.552;13.204;2022-07-17T08:53:16;5.45;;;3.80;;
25905;SDS011;13713;52.552;13.204;2022-07-17T08:55:42;6.22;;;3.83;;
25905;SDS011;13713;52.552;13.204;2022-07-17T08:58:13;7.05;;;3.17;;
25905;SDS011;13713;52.552;13.204;2022-07-17T09:00:40;5.43;;;3.55;;
25905;SDS011;13713;52.552;13.204;2022-07-17T09:03:06;6.75;;;3.38;;
25905;SDS011;13713;52.552;13.204;2022-07-17T09:05:33;5.18;;;3.03;;
25905;SDS011;13713;52.552;13.204;2022-07-17T09:08:03;4.72;;;3.55;;
25905;SDS011;13713;52.552;13.204;2022-07-17T09:10:40;5.60;;;3.70;;
25905;SDS011;13713;52.552;13.204;2022-07-17T09:15:41;5.70;;;3.30;;
25905;SDS011;13713;52.552;13.204;2022-07-17T09:18:07;7.43;;;3.50;;
25905;SDS011;13713;52.552;13.204;2022-07-17T09:20:33;6.78;;;3.67;;
25905;SDS011;13713;52.552;13.204;2022-07-17T09:22:59;4.55;;;3.30;;
25905;SDS011;13713;52.552;13.204;2022-07-17T09:25:33;5.28;;;3.28;;
25905;SDS011;13713;52.552;13.204;2022-07-17T09:28:10;5.93;;;3.30;;
25905;SDS011;13713;52.552;13.204;2022-07-17T09:30:40;5.47;;;3.38;;
25905;SDS011;13713;52.552;13.204;2022-07-17T09:33:20;5.93;;;3.67;;
25905;SDS011;13713;52.552;13.204;2022-07-17T09:35:55;5.63;;;3.65;;
25905;SDS011;13713;52.552;13.204;2022-07-17T09:38:37;5.80;;;3.40;;
25905;SDS011;13713;52.552;13.204;2022-07-17T09:41:10;4.90;;;3.30;;
25905;SDS011;13713;52.552;13.204;2022-07-17T09:44:01;5.18;;;3.42;;
25905;SDS011;13713;52.552;13.204;2022-07-17T09:46:27;7.63;;;3.70;;
25905;SDS011;13713;52.552;13.204;2022-07-17T09:49:02;6.22;;;3.60;;
25905;SDS011;13713;52.552;13.204;2022-07-17T09:51:35;5.75;;;3.53;;
25905;SDS011;13713;52.552;13.204;2022-07-17T09:54:05;6.30;;;3.83;;
25905;SDS011;13713;52.552;13.204;2022-07-17T09:56:34;5.78;;;3.38;;
25905;SDS011;13713;52.552;13.204;2022-07-17T09:59:10;7.60;;;3.60;;
25905;SDS011;13713;52.552;13.204;2022-07-17T10:01:38;6.55;;;3.72;;
25905;SDS011;13713;52.552;13.204;2022-07-17T10:04:06;7.75;;;3.90;;
25905;SDS011;13713;52.552;13.204;2022-07-17T10:06:32;6.00;;;3.55;;
25905;SDS011;13713;52.552;13.204;2022-07-17T10:08:58;4.97;;;3.40;;
25905;SDS011;13713;52.552;13.204;2022-07-17T10:11:25;3.72;;;2.85;;
25905;SDS011;13713;52.552;13.204;2022-07-17T10:13:53;6.15;;;3.40;;
25905;SDS011;13713;52.552;13.204;2022-07-17T10:16:27;5.00;;;3.42;;
25905;SDS011;13713;52.552;13.204;2022-07-17T10:18:55;4.68;;;3.50;;
25905;SDS011;13713;52.552;13.204;2022-07-17T10:21:23;6.13;;;3.58;;
25905;SDS011;13713;52.552;13.204;2022-07-17T10:26:19;5.97;;;3.67;;
25905;SDS011;13713;52.552;13.204;2022-07-17T10:29:02;6.10;;;3.90;;
25905;SDS011;13713;52.552;13.204;2022-07-17T10:31:29;5.68;;;3.60;;
25905;SDS011;13713;52.552;13.204;2022-07-17T10:33:56;4.28;;;3.50;;
25905;SDS011;13713;52.552;13.204;2022-07-17T10:36:39;4.78;;;3.72;;
25905;SDS011;13713;52.552;13.204;2022-07-17T10:39:16;4.85;;;3.20;;
25905;SDS011;13713;52.552;13.204;2022-07-17T10:41:43;4.43;;;3.25;;
25905;SDS011;13713;52.552;13.204;2022-07-17T10:44:28;5.13;;;3.80;;
25905;SDS011;13713;52.552;13.204;2022-07-17T10:46:55;4.30;;;3.47;;
25905;SDS011;13713;52.552;13.204;2022-07-17T10:49:22;4.80;;;3.72;;
25905;SDS011;13713;52.552;13.204;2022-07-17T10:51:48;7.80;;;3.95;;
25905;SDS011;13713;52.552;13.204;2022-07-17T10:54:15;5.93;;;3.30;;
25905;SDS011;13713;52.552;13.204;2022-07-17T10:56:41;4.57;;;3.63;;
25905;SDS011;13713;52.552;13.204;2022-07-17T10:59:07;4.68;;;3.40;;
25905;SDS011;13713;52.552;13.204;2022-07-17T11:01:32;6.95;;;3.60;;
25905;SDS011;13713;52.552;13.204;2022-07-17T11:03:59;5.03;;;3.70;;
25905;SDS011;13713;52.552;13.204;2022-07-17T11:08:58;5.60;;;3.55;;
25905;SDS011;13713;52.552;13.204;2022-07-17T11:16:46;5.63;;;3.70;;
25905;SDS011;13713;52.552;13.204;2022-07-17T11:19:24;5.40;;;3.78;;
25905;SDS011;13713;52.552;13.204;2022-07-17T11:21:51;4.55;;;3.22;;
25905;SDS011;13713;52.552;13.204;2022-07-17T11:24:18;4.80;;;3.78;;
25905;SDS011;13713;52.552;13.204;2022-07-17T11:26:43;5.07;;;3.40;;
25905;SDS011;13713;52.552;13.204;2022-07-17T11:29:09;5.90;;;3.70;;
25905;SDS011;13713;52.552;13.204;2022-07-17T11:31:36;5.43;;;3.28;;
25905;SDS011;13713;52.552;13.204;2022-07-17T11:34:03;4.72;;;3.63;;
25905;SDS011;13713;52.552;13.204;2022-07-17T11:36:34;7.50;;;4.45;;
25905;SDS011;13713;52.552;13.204;2022-07-17T11:39:06;4.70;;;3.25;;
25905;SDS011;13713;52.552;13.204;2022-07-17T11:41:45;6.15;;;3.55;;
25905;SDS011;13713;52.552;13.204;2022-07-17T11:44:18;4.82;;;3.70;;
25905;SDS011;13713;52.552;13.204;2022-07-17T11:46:47;5.88;;;4.10;;
25905;SDS011;13713;52.552;13.204;2022-07-17T11:49:26;4.78;;;3.60;;
25905;SDS011;13713;52.552;13.204;2022-07-17T11:51:55;5.05;;;3.45;;
25905;SDS011;13713;52.552;13.204;2022-07-17T11:54:22;5.40;;;3.63;;
25905;SDS011;13713;52.552;13.204;2022-07-17T11:56:52;5.35;;;3.90;;
25905;SDS011;13713;52.552;13.204;2022-07-17T11:59:23;6.05;;;3.70;;
25905;SDS011;13713;52.552;13.204;2022-07-17T12:01:50;4.43;;;3.30;;
25905;SDS011;13713;52.552;13.204;2022-07-17T12:04:16;4.70;;;3.60;;
25905;SDS011;13713;52.552;13.204;2022-07-17T12:06:42;5.85;;;3.90;;
25905;SDS011;13713;52.552;13.204;2022-07-17T12:09:08;4.13;;;3.60;;
25905;SDS011;13713;52.552;13.204;2022-07-17T12:11:50;4.35;;;3.83;;
25905;SDS011;13713;52.552;13.204;2022-07-17T12:14:15;5.60;;;4.38;;
25905;SDS011;13713;52.552;13.204;2022-07-17T12:16:41;4.50;;;3.60;;
25905;SDS011;13713;52.552;13.204;2022-07-17T12:19:08;5.05;;;4.28;;
25905;SDS011;13713;52.552;13.204;2022-07-17T12:24:20;4.55;;;3.72;;
25905;SDS011;13713;52.552;13.204;2022-07-17T12:26:48;5.88;;;4.05;;
25905;SDS011;13713;52.552;13.204;2022-07-17T12:29:15;5.45;;;3.90;;
25905;SDS011;13713;52.552;13.204;2022-07-17T12:31:41;5.28;;;3.90;;
25905;SDS011;13713;52.552;13.204;2022-07-17T12:34:07;6.28;;;4.07;;
25905;SDS011;13713;52.552;13.204;2022-07-17T12:36:32;6.30;;;4.13;;
25905;SDS011;13713;52.552;13.204;2022-07-17T12:38:58;5.13;;;4.00;;
25905;SDS011;13713;52.552;13.204;2022-07-17T12:41:24;5.25;;;3.97;;
25905;SDS011;13713;52.552;13.204;2022-07-17T12:43:50;4.90;;;3.42;;
25905;SDS011;13713;52.552;13.204;2022-07-17T12:46:15;5.78;;;4.20;;
25905;SDS011;13713;52.552;13.204;2022-07-17T12:48:42;4.75;;;3.67;;
25905;SDS011;13713;52.552;13.204;2022-07-17T12:51:09;6.05;;;3.97;;
25905;SDS011;13713;52.552;13.204;2022-07-17T12:53:38;5.03;;;3.55;;
25905;SDS011;13713;52.552;13.204;2022-07-17T12:56:05;5.47;;;4.63;;
25905;SDS011;13713;52.552;13.204;2022-07-17T12:58:31;4.72;;;3.85;;
25905;SDS011;13713;52.552;13.204;2022-07-17T13:00:57;4.72;;;3.95;;
25905;SDS011;13713;52.552;13.204;2022-07-17T13:03:22;5.05;;;3.88;;
25905;SDS011;13713;52.552;13.204;2022-07-17T13:05:48;5.32;;;3.75;;
25905;SDS011;13713;52.552;13.204;2022-07-17T13:08:15;5.78;;;4.30;;
25905;SDS011;13713;52.552;13.204;2022-07-17T13:10:40;8.02;;;3.63;;
25905;SDS011;13713;52.552;13.204;2022-07-17T13:13:06;5.20;;;3.95;;
25905;SDS011;13713;52.552;13.204;2022-07-17T13:15:32;4.97;;;4.15;;
25905;SDS011;13713;52.552;13.204;2022-07-17T13:17:57;5.97;;;4.32;;
25905;SDS011;13713;52.552;13.204;2022-07-17T13:20:25;7.05;;;4.45;;
25905;SDS011;13713;52.552;13.204;2022-07-17T13:22:52;5.43;;;4.00;;
25905;SDS011;13713;52.552;13.204;2022-07-17T13:25:17;5.82;;;4.18;;
25905;SDS011;13713;52.552;13.204;2022-07-17T13:27:43;4.97;;;4.15;;
25905;SDS011;13713;52.552;13.204;2022-07-17T13:30:09;4.70;;;4.20;;
25905;SDS011;13713;52.552;13.204;2022-07-17T13:32:35;5.55;;;3.88;;
25905;SDS011;13713;52.552;13.204;2022-07-17T13:35:01;6.20;;;4.38;;
25905;SDS011;13713;52.552;13.204;2022-07-17T13:37:27;4.82;;;4.32;;
25905;SDS011;13713;52.552;13.204;2022-07-17T13:39:53;5.28;;;3.85;;
25905;SDS011;13713;52.552;13.204;2022-07-17T13:42:18;5.03;;;4.53;;
25905;SDS011;13713;52.552;13.204;2022-07-17T13:44:44;6.43;;;4.63;;
25905;SDS011;13713;52.552;13.204;2022-07-17T13:47:10;5.50;;;4.38;;
25905;SDS011;13713;52.552;13.204;2022-07-17T13:49:36;5.45;;;4.15;;
25905;SDS011;13713;52.552;13.204;2022-07-17T13:52:01;7.88;;;4.93;;
25905;SDS011;13713;52.552;13.204;2022-07-17T13:54:27;5.38;;;3.58;;
25905;SDS011;13713;52.552;13.204;2022-07-17T13:56:53;6.47;;;4.68;;
25905;SDS011;13713;52.552;13.204;2022-07-17T13:59:18;5.85;;;4.47;;
25905;SDS011;13713;52.552;13.204;2022-07-17T14:01:44;6.13;;;4.35;;
25905;SDS011;13713;52.552;13.204;2022-07-17T14:04:10;5.97;;;4.30;;
25905;SDS011;13713;52.552;13.204;2022-07-17T14:06:36;7.40;;;4.50;;
25905;SDS011;13713;52.552;13.204;2022-07-17T14:09:02;5.70;;;4.35;;
25905;SDS011;13713;52.552;13.204;2022-07-17T14:11:28;5.38;;;4.32;;
25905;SDS011;13713;52.552;13.204;2022-07-17T14:13:54;7.07;;;4.32;;
25905;SDS011;13713;52.552;13.204;2022-07-17T14:16:20;5.22;;;4.45;;
25905;SDS011;13713;52.552;13.204;2022-07-17T14:18:45;6.25;;;4.30;;
25905;SDS011;13713;52.552;13.204;2022-07-17T14:21:30;5.35;;;4.50;;
25905;SDS011;13713;52.552;13.204;2022-07-17T14:23:57;6.07;;;4.35;;
25905;SDS011;13713;52.552;13.204;2022-07-17T14:26:23;5.53;;;4.30;;
25905;SDS011;13713;52.552;13.204;2022-07-17T14:28:49;6.03;;;4.53;;
25905;SDS011;13713;52.552;13.204;2022-07-17T14:31:15;4.70;;;4.20;;
25905;SDS011;13713;52.552;13.204;2022-07-17T14:33:41;7.13;;;4.38;;
25905;SDS011;13713;52.552;13.204;2022-07-17T14:36:08;4.82;;;3.90;;
25905;SDS011;13713;52.552;13.204;2022-07-17T14:38:34;5.43;;;4.38;;
25905;SDS011;13713;52.552;13.204;2022-07-17T14:40:59;5.35;;;4.47;;
25905;SDS011;13713;52.552;13.204;2022-07-17T14:43:25;7.13;;;4.80;;
25905;SDS011;13713;52.552;13.204;2022-07-17T14:45:51;7.18;;;4.90;;
25905;SDS011;13713;52.552;13.204;2022-07-17T14:48:17;5.85;;;4.88;;